sensor_id;sensor_type;location;lat;lon;timestamp;P1;durP1;ratioP1;P2;durP2;ratioP2
15287;SDS011;7745;48.708;9.026;2022-09-09T00:00:12;3.47;;;1.30;;
15287;SDS011;7745;48.708;9.026;2022-09-09T00:02:43;3.60;;;1.40;;
15287;SDS011;7745;48.708;9.026;2022-09-09T00:05:17;2.37;;;1.40;;
15287;SDS011;7745;48.708;9.026;2022-09-09T00:07:52;6.80;;;1.50;;
15287;SDS011;7745;48.708;9.026;2022-09-09T00:10:22;4.90;;;1.10;;
15287;SDS011;7745;48.708;9.026;2022-09-09T00:12:55;4.50;;;1.10;;
15287;SDS011;7745;48.708;9.026;2022-09-09T00:15:30;1.83;;;1.00;;
15287;SDS011;7745;48.708;9.026;2022-09-09T00:18:07;3.47;;;1.10;;
15287;SDS011;7745;48.708;9.026;2022-09-09T00:20:42;4.40;;;0.90;;
15287;SDS011;7745;48.708;9.026;2022-09-09T00:23:18;3.53;;;1.40;;
15287;SDS011;7745;48.708;9.026;2022-09-09T00:25:52;2.13;;;1.30;;
15287;SDS011;7745;48.708;9.026;2022-09-09T00:28:26;3.33;;;1.27;;
15287;SDS011;7745;48.708;9.026;2022-09-09T00:30:56;3.57;;;1.20;;
15287;SDS011;7745;48.708;9.026;2022-09-09T00:33:29;4.87;;;1.27;;
15287;SDS011;7745;48.708;9.026;2022-09-09T00:35:57;4.07;;;1.30;;
15287;SDS011;7745;48.708;9.026;2022-09-09T00:38:27;5.83;;;1.27;;
15287;SDS011;7745;48.708;9.026;2022-09-09T00:41:03;2.90;;;1.20;;
15287;SDS011;7745;48.708;9.026;2022-09-09T00:43:37;3.77;;;1.47;;
15287;SDS011;7745;48.708;9.026;2022-09-09T00:46:19;5.83;;;1.30;;
15287;SDS011;7745;48.708;9.026;2022-09-09T00:49:18;4.27;;;1.33;;
15287;SDS011;7745;48.708;9.026;2022-09-09T00:51:56;2.10;;;0.93;;
15287;SDS011;7745;48.708;9.026;2022-09-09T00:54:38;3.27;;;1.10;;
15287;SDS011;7745;48.708;9.026;2022-09-09T00:57:19;3.67;;;1.33;;
15287;SDS011;7745;48.708;9.026;2022-09-09T00:59:55;4.40;;;1.70;;
15287;SDS011;7745;48.708;9.026;2022-09-09T01:02:26;2.80;;;1.10;;
15287;SDS011;7745;48.708;9.026;2022-09-09T01:05:00;3.03;;;1.00;;
15287;SDS011;7745;48.708;9.026;2022-09-09T01:07:33;1.93;;;1.00;;
15287;SDS011;7745;48.708;9.026;2022-09-09T01:10:00;4.47;;;1.00;;
15287;SDS011;7745;48.708;9.026;2022-09-09T01:12:35;4.77;;;1.23;;
15287;SDS011;7745;48.708;9.026;2022-09-09T01:15:11;5.17;;;1.10;;
15287;SDS011;7745;48.708;9.026;2022-09-09T01:17:48;3.60;;;1.33;;
15287;SDS011;7745;48.708;9.026;2022-09-09T01:20:20;5.30;;;1.50;;
15287;SDS011;7745;48.708;9.026;2022-09-09T01:22:55;2.77;;;0.93;;
15287;SDS011;7745;48.708;9.026;2022-09-09T01:26:02;2.20;;;1.20;;
15287;SDS011;7745;48.708;9.026;2022-09-09T01:28:43;1.73;;;0.90;;
15287;SDS011;7745;48.708;9.026;2022-09-09T01:31:13;3.93;;;1.03;;
15287;SDS011;7745;48.708;9.026;2022-09-09T01:33:43;3.97;;;1.10;;
15287;SDS011;7745;48.708;9.026;2022-09-09T01:36:12;3.00;;;1.10;;
15287;SDS011;7745;48.708;9.026;2022-09-09T01:38:43;2.03;;;1.00;;
15287;SDS011;7745;48.708;9.026;2022-09-09T01:41:12;4.67;;;1.20;;
15287;SDS011;7745;48.708;9.026;2022-09-09T01:43:39;3.67;;;1.30;;
15287;SDS011;7745;48.708;9.026;2022-09-09T01:46:05;3.57;;;1.10;;
15287;SDS011;7745;48.708;9.026;2022-09-09T01:48:33;2.57;;;1.10;;
15287;SDS011;7745;48.708;9.026;2022-09-09T01:51:00;2.60;;;0.97;;
15287;SDS011;7745;48.708;9.026;2022-09-09T01:53:26;2.67;;;1.10;;
15287;SDS011;7745;48.708;9.026;2022-09-09T01:55:57;4.00;;;1.17;;
15287;SDS011;7745;48.708;9.026;2022-09-09T01:58:40;2.47;;;1.00;;
15287;SDS011;7745;48.708;9.026;2022-09-09T02:01:20;3.63;;;1.10;;
15287;SDS011;7745;48.708;9.026;2022-09-09T02:03:55;3.50;;;1.30;;
15287;SDS011;7745;48.708;9.026;2022-09-09T02:06:28;2.70;;;0.90;;
15287;SDS011;7745;48.708;9.026;2022-09-09T02:09:00;4.30;;;1.03;;
15287;SDS011;7745;48.708;9.026;2022-09-09T02:11:30;3.00;;;1.20;;
15287;SDS011;7745;48.708;9.026;2022-09-09T02:14:01;2.60;;;1.00;;
15287;SDS011;7745;48.708;9.026;2022-09-09T02:16:32;1.43;;;0.83;;
15287;SDS011;7745;48.708;9.026;2022-09-09T02:19:06;4.77;;;1.30;;
15287;SDS011;7745;48.708;9.026;2022-09-09T02:21:37;3.43;;;1.10;;
15287;SDS011;7745;48.708;9.026;2022-09-09T02:24:05;5.20;;;1.37;;
15287;SDS011;7745;48.708;9.026;2022-09-09T02:26:35;2.97;;;1.00;;
15287;SDS011;7745;48.708;9.026;2022-09-09T02:29:08;3.53;;;1.53;;
15287;SDS011;7745;48.708;9.026;2022-09-09T02:31:39;3.83;;;1.20;;
15287;SDS011;7745;48.708;9.026;2022-09-09T02:34:08;4.40;;;1.10;;
15287;SDS011;7745;48.708;9.026;2022-09-09T02:36:37;7.50;;;1.40;;
15287;SDS011;7745;48.708;9.026;2022-09-09T02:39:07;1.87;;;1.17;;
15287;SDS011;7745;48.708;9.026;2022-09-09T02:41:35;5.23;;;1.07;;
15287;SDS011;7745;48.708;9.026;2022-09-09T02:44:05;3.87;;;1.00;;
15287;SDS011;7745;48.708;9.026;2022-09-09T02:49:37;4.53;;;1.30;;
15287;SDS011;7745;48.708;9.026;2022-09-09T02:52:11;2.60;;;1.13;;
15287;SDS011;7745;48.708;9.026;2022-09-09T02:54:41;3.70;;;1.13;;
15287;SDS011;7745;48.708;9.026;2022-09-09T02:57:10;5.10;;;1.20;;
15287;SDS011;7745;48.708;9.026;2022-09-09T02:59:39;5.83;;;1.37;;
15287;SDS011;7745;48.708;9.026;2022-09-09T03:02:06;4.87;;;1.33;;
15287;SDS011;7745;48.708;9.026;2022-09-09T03:04:35;3.53;;;1.20;;
15287;SDS011;7745;48.708;9.026;2022-09-09T03:07:01;4.40;;;1.30;;
15287;SDS011;7745;48.708;9.026;2022-09-09T03:09:29;4.20;;;1.13;;
15287;SDS011;7745;48.708;9.026;2022-09-09T03:11:56;3.93;;;1.50;;
15287;SDS011;7745;48.708;9.026;2022-09-09T03:14:23;4.63;;;1.33;;
15287;SDS011;7745;48.708;9.026;2022-09-09T03:16:51;4.53;;;2.03;;
15287;SDS011;7745;48.708;9.026;2022-09-09T03:19:19;4.20;;;1.70;;
15287;SDS011;7745;48.708;9.026;2022-09-09T03:21:46;5.07;;;1.80;;
15287;SDS011;7745;48.708;9.026;2022-09-09T03:24:14;3.97;;;1.80;;
15287;SDS011;7745;48.708;9.026;2022-09-09T03:26:41;6.07;;;1.73;;
15287;SDS011;7745;48.708;9.026;2022-09-09T03:29:09;2.60;;;1.17;;
15287;SDS011;7745;48.708;9.026;2022-09-09T03:31:37;3.77;;;1.07;;
15287;SDS011;7745;48.708;9.026;2022-09-09T03:34:06;5.03;;;2.00;;
15287;SDS011;7745;48.708;9.026;2022-09-09T03:36:33;2.67;;;1.00;;
15287;SDS011;7745;48.708;9.026;2022-09-09T03:39:00;4.00;;;1.27;;
15287;SDS011;7745;48.708;9.026;2022-09-09T03:41:28;2.40;;;0.97;;
15287;SDS011;7745;48.708;9.026;2022-09-09T03:43:55;2.83;;;0.90;;
15287;SDS011;7745;48.708;9.026;2022-09-09T03:46:22;6.83;;;0.90;;
15287;SDS011;7745;48.708;9.026;2022-09-09T03:48:50;2.00;;;1.00;;
15287;SDS011;7745;48.708;9.026;2022-09-09T03:51:19;2.73;;;1.10;;
15287;SDS011;7745;48.708;9.026;2022-09-09T03:53:47;3.07;;;1.00;;
15287;SDS011;7745;48.708;9.026;2022-09-09T03:56:14;2.77;;;1.00;;
15287;SDS011;7745;48.708;9.026;2022-09-09T03:58:40;8.13;;;1.40;;
15287;SDS011;7745;48.708;9.026;2022-09-09T04:01:08;4.17;;;1.00;;
15287;SDS011;7745;48.708;9.026;2022-09-09T04:03:38;5.13;;;1.17;;
15287;SDS011;7745;48.708;9.026;2022-09-09T04:06:06;3.90;;;1.40;;
15287;SDS011;7745;48.708;9.026;2022-09-09T04:08:35;2.87;;;1.00;;
15287;SDS011;7745;48.708;9.026;2022-09-09T04:11:03;2.80;;;1.10;;
15287;SDS011;7745;48.708;9.026;2022-09-09T04:13:31;6.20;;;1.33;;
15287;SDS011;7745;48.708;9.026;2022-09-09T04:15:59;5.13;;;1.13;;
15287;SDS011;7745;48.708;9.026;2022-09-09T04:18:28;2.53;;;0.93;;
15287;SDS011;7745;48.708;9.026;2022-09-09T04:20:55;4.17;;;1.03;;
15287;SDS011;7745;48.708;9.026;2022-09-09T04:23:23;3.47;;;1.00;;
15287;SDS011;7745;48.708;9.026;2022-09-09T04:25:53;4.63;;;1.00;;
15287;SDS011;7745;48.708;9.026;2022-09-09T04:28:22;1.97;;;1.03;;
15287;SDS011;7745;48.708;9.026;2022-09-09T04:30:51;4.87;;;1.00;;
15287;SDS011;7745;48.708;9.026;2022-09-09T04:33:18;1.63;;;0.93;;
15287;SDS011;7745;48.708;9.026;2022-09-09T04:35:45;2.67;;;1.10;;
15287;SDS011;7745;48.708;9.026;2022-09-09T04:38:13;2.60;;;1.10;;
15287;SDS011;7745;48.708;9.026;2022-09-09T04:40:41;2.90;;;1.40;;
15287;SDS011;7745;48.708;9.026;2022-09-09T04:43:10;5.90;;;0.90;;
15287;SDS011;7745;48.708;9.026;2022-09-09T04:45:37;3.33;;;1.40;;
15287;SDS011;7745;48.708;9.026;2022-09-09T04:48:05;3.70;;;1.10;;
15287;SDS011;7745;48.708;9.026;2022-09-09T04:50:32;3.97;;;0.93;;
15287;SDS011;7745;48.708;9.026;2022-09-09T04:52:59;5.30;;;1.10;;
15287;SDS011;7745;48.708;9.026;2022-09-09T04:55:27;4.10;;;1.10;;
15287;SDS011;7745;48.708;9.026;2022-09-09T04:57:54;5.83;;;1.37;;
15287;SDS011;7745;48.708;9.026;2022-09-09T05:00:23;8.73;;;1.30;;
15287;SDS011;7745;48.708;9.026;2022-09-09T05:02:50;7.00;;;1.40;;
15287;SDS011;7745;48.708;9.026;2022-09-09T05:05:17;4.40;;;1.57;;
15287;SDS011;7745;48.708;9.026;2022-09-09T05:07:44;3.83;;;1.27;;
15287;SDS011;7745;48.708;9.026;2022-09-09T05:10:12;3.20;;;1.10;;
15287;SDS011;7745;48.708;9.026;2022-09-09T05:12:41;6.60;;;1.50;;
15287;SDS011;7745;48.708;9.026;2022-09-09T05:15:08;5.73;;;1.20;;
15287;SDS011;7745;48.708;9.026;2022-09-09T05:17:38;3.27;;;1.33;;
15287;SDS011;7745;48.708;9.026;2022-09-09T05:20:05;2.90;;;1.10;;
15287;SDS011;7745;48.708;9.026;2022-09-09T05:22:34;3.93;;;1.27;;
15287;SDS011;7745;48.708;9.026;2022-09-09T05:25:01;3.47;;;1.20;;
15287;SDS011;7745;48.708;9.026;2022-09-09T05:27:27;5.17;;;1.20;;
15287;SDS011;7745;48.708;9.026;2022-09-09T05:29:56;4.50;;;1.43;;
15287;SDS011;7745;48.708;9.026;2022-09-09T05:32:23;3.97;;;1.13;;
15287;SDS011;7745;48.708;9.026;2022-09-09T05:34:51;2.97;;;0.90;;
15287;SDS011;7745;48.708;9.026;2022-09-09T05:37:18;2.77;;;1.07;;
15287;SDS011;7745;48.708;9.026;2022-09-09T05:39:45;6.30;;;1.60;;
15287;SDS011;7745;48.708;9.026;2022-09-09T05:42:12;4.37;;;1.30;;
15287;SDS011;7745;48.708;9.026;2022-09-09T05:44:39;4.77;;;1.27;;
15287;SDS011;7745;48.708;9.026;2022-09-09T05:47:09;2.57;;;1.10;;
15287;SDS011;7745;48.708;9.026;2022-09-09T05:49:36;1.73;;;1.20;;
15287;SDS011;7745;48.708;9.026;2022-09-09T05:52:05;10.70;;;1.80;;
15287;SDS011;7745;48.708;9.026;2022-09-09T05:54:31;3.17;;;1.47;;
15287;SDS011;7745;48.708;9.026;2022-09-09T05:56:58;6.00;;;1.37;;
15287;SDS011;7745;48.708;9.026;2022-09-09T05:59:25;4.97;;;1.50;;
15287;SDS011;7745;48.708;9.026;2022-09-09T06:01:53;4.93;;;1.23;;
15287;SDS011;7745;48.708;9.026;2022-09-09T06:04:21;5.00;;;1.50;;
15287;SDS011;7745;48.708;9.026;2022-09-09T06:06:49;2.80;;;1.10;;
15287;SDS011;7745;48.708;9.026;2022-09-09T06:09:17;3.90;;;1.17;;
15287;SDS011;7745;48.708;9.026;2022-09-09T06:11:45;4.53;;;1.03;;
15287;SDS011;7745;48.708;9.026;2022-09-09T06:14:11;3.03;;;1.20;;
15287;SDS011;7745;48.708;9.026;2022-09-09T06:16:38;2.43;;;0.90;;
15287;SDS011;7745;48.708;9.026;2022-09-09T06:19:09;2.10;;;1.10;;
15287;SDS011;7745;48.708;9.026;2022-09-09T06:21:37;4.87;;;1.00;;
15287;SDS011;7745;48.708;9.026;2022-09-09T06:24:05;5.73;;;1.17;;
15287;SDS011;7745;48.708;9.026;2022-09-09T06:26:34;3.87;;;0.90;;
15287;SDS011;7745;48.708;9.026;2022-09-09T06:29:02;4.53;;;1.33;;
15287;SDS011;7745;48.708;9.026;2022-09-09T06:31:31;5.53;;;1.20;;
15287;SDS011;7745;48.708;9.026;2022-09-09T06:34:01;2.83;;;1.03;;
15287;SDS011;7745;48.708;9.026;2022-09-09T06:36:31;7.63;;;1.40;;
15287;SDS011;7745;48.708;9.026;2022-09-09T06:39:00;4.20;;;1.20;;
15287;SDS011;7745;48.708;9.026;2022-09-09T06:41:28;8.13;;;1.20;;
15287;SDS011;7745;48.708;9.026;2022-09-09T06:43:57;2.00;;;1.03;;
15287;SDS011;7745;48.708;9.026;2022-09-09T06:46:24;5.20;;;1.10;;
15287;SDS011;7745;48.708;9.026;2022-09-09T06:48:53;5.47;;;1.20;;
15287;SDS011;7745;48.708;9.026;2022-09-09T06:51:23;1.73;;;1.10;;
15287;SDS011;7745;48.708;9.026;2022-09-09T06:53:52;3.33;;;1.10;;
15287;SDS011;7745;48.708;9.026;2022-09-09T06:56:21;3.30;;;1.30;;
15287;SDS011;7745;48.708;9.026;2022-09-09T06:58:50;6.17;;;1.40;;
15287;SDS011;7745;48.708;9.026;2022-09-09T07:01:19;3.63;;;1.30;;
15287;SDS011;7745;48.708;9.026;2022-09-09T07:03:49;10.87;;;1.47;;
15287;SDS011;7745;48.708;9.026;2022-09-09T07:06:18;3.17;;;1.33;;
15287;SDS011;7745;48.708;9.026;2022-09-09T07:08:49;6.40;;;1.37;;
15287;SDS011;7745;48.708;9.026;2022-09-09T07:11:17;5.97;;;1.57;;
15287;SDS011;7745;48.708;9.026;2022-09-09T07:13:45;4.93;;;1.50;;
15287;SDS011;7745;48.708;9.026;2022-09-09T07:16:12;9.77;;;1.60;;
15287;SDS011;7745;48.708;9.026;2022-09-09T07:18:42;3.17;;;1.30;;
15287;SDS011;7745;48.708;9.026;2022-09-09T07:21:10;6.63;;;1.70;;
15287;SDS011;7745;48.708;9.026;2022-09-09T07:23:38;2.73;;;1.37;;
15287;SDS011;7745;48.708;9.026;2022-09-09T07:26:07;4.10;;;1.20;;
15287;SDS011;7745;48.708;9.026;2022-09-09T07:28:35;3.70;;;1.40;;
15287;SDS011;7745;48.708;9.026;2022-09-09T07:31:12;7.53;;;1.57;;
15287;SDS011;7745;48.708;9.026;2022-09-09T07:33:45;3.80;;;1.17;;
15287;SDS011;7745;48.708;9.026;2022-09-09T07:36:16;3.53;;;1.07;;
15287;SDS011;7745;48.708;9.026;2022-09-09T07:38:46;7.13;;;1.50;;
15287;SDS011;7745;48.708;9.026;2022-09-09T07:41:15;5.87;;;1.77;;
15287;SDS011;7745;48.708;9.026;2022-09-09T07:43:45;5.40;;;1.50;;
15287;SDS011;7745;48.708;9.026;2022-09-09T07:46:13;11.23;;;1.90;;
15287;SDS011;7745;48.708;9.026;2022-09-09T07:48:44;5.20;;;1.30;;
15287;SDS011;7745;48.708;9.026;2022-09-09T07:51:13;3.63;;;1.33;;
15287;SDS011;7745;48.708;9.026;2022-09-09T07:53:43;2.97;;;1.20;;
15287;SDS011;7745;48.708;9.026;2022-09-09T07:56:10;2.43;;;1.10;;
15287;SDS011;7745;48.708;9.026;2022-09-09T07:58:39;4.73;;;1.00;;
15287;SDS011;7745;48.708;9.026;2022-09-09T08:01:07;8.87;;;1.17;;
15287;SDS011;7745;48.708;9.026;2022-09-09T08:03:36;5.23;;;1.27;;
15287;SDS011;7745;48.708;9.026;2022-09-09T08:06:06;5.27;;;1.40;;
15287;SDS011;7745;48.708;9.026;2022-09-09T08:08:34;3.83;;;1.20;;
15287;SDS011;7745;48.708;9.026;2022-09-09T08:11:03;5.63;;;1.17;;
15287;SDS011;7745;48.708;9.026;2022-09-09T08:13:33;3.40;;;1.20;;
15287;SDS011;7745;48.708;9.026;2022-09-09T08:16:03;2.47;;;0.80;;
15287;SDS011;7745;48.708;9.026;2022-09-09T08:18:31;7.27;;;1.00;;
15287;SDS011;7745;48.708;9.026;2022-09-09T08:21:05;9.93;;;1.20;;
15287;SDS011;7745;48.708;9.026;2022-09-09T08:23:34;4.47;;;1.23;;
15287;SDS011;7745;48.708;9.026;2022-09-09T08:26:04;3.67;;;1.10;;
15287;SDS011;7745;48.708;9.026;2022-09-09T08:28:32;4.67;;;1.23;;
15287;SDS011;7745;48.708;9.026;2022-09-09T08:31:09;5.33;;;1.10;;
15287;SDS011;7745;48.708;9.026;2022-09-09T08:33:38;4.73;;;1.20;;
15287;SDS011;7745;48.708;9.026;2022-09-09T08:36:08;7.77;;;1.40;;
15287;SDS011;7745;48.708;9.026;2022-09-09T08:38:37;5.10;;;1.10;;
15287;SDS011;7745;48.708;9.026;2022-09-09T08:41:07;3.63;;;1.27;;
15287;SDS011;7745;48.708;9.026;2022-09-09T08:43:43;5.00;;;1.50;;
15287;SDS011;7745;48.708;9.026;2022-09-09T08:46:14;5.43;;;1.13;;
15287;SDS011;7745;48.708;9.026;2022-09-09T08:48:52;2.53;;;0.90;;
15287;SDS011;7745;48.708;9.026;2022-09-09T08:51:26;6.33;;;1.33;;
15287;SDS011;7745;48.708;9.026;2022-09-09T08:53:56;3.23;;;0.80;;
15287;SDS011;7745;48.708;9.026;2022-09-09T08:56:26;3.37;;;0.97;;
15287;SDS011;7745;48.708;9.026;2022-09-09T08:58:54;3.97;;;1.17;;
15287;SDS011;7745;48.708;9.026;2022-09-09T09:01:35;9.73;;;1.20;;
15287;SDS011;7745;48.708;9.026;2022-09-09T09:04:14;4.93;;;1.13;;
15287;SDS011;7745;48.708;9.026;2022-09-09T09:07:16;5.73;;;1.30;;
15287;SDS011;7745;48.708;9.026;2022-09-09T09:09:54;4.30;;;1.53;;
15287;SDS011;7745;48.708;9.026;2022-09-09T09:12:28;2.93;;;0.80;;
15287;SDS011;7745;48.708;9.026;2022-09-09T09:14:59;3.10;;;0.87;;
15287;SDS011;7745;48.708;9.026;2022-09-09T09:17:27;2.20;;;0.60;;
15287;SDS011;7745;48.708;9.026;2022-09-09T09:19:58;1.63;;;0.70;;
15287;SDS011;7745;48.708;9.026;2022-09-09T09:22:29;2.97;;;0.80;;
15287;SDS011;7745;48.708;9.026;2022-09-09T09:25:00;2.57;;;0.73;;
15287;SDS011;7745;48.708;9.026;2022-09-09T09:27:36;2.73;;;0.60;;
15287;SDS011;7745;48.708;9.026;2022-09-09T09:30:12;2.40;;;0.70;;
15287;SDS011;7745;48.708;9.026;2022-09-09T09:32:52;3.50;;;0.70;;
15287;SDS011;7745;48.708;9.026;2022-09-09T09:35:21;2.27;;;0.60;;
15287;SDS011;7745;48.708;9.026;2022-09-09T09:37:50;1.77;;;0.70;;
15287;SDS011;7745;48.708;9.026;2022-09-09T09:40:17;6.33;;;1.40;;
15287;SDS011;7745;48.708;9.026;2022-09-09T09:42:49;3.10;;;0.83;;
15287;SDS011;7745;48.708;9.026;2022-09-09T09:45:21;2.00;;;0.70;;
15287;SDS011;7745;48.708;9.026;2022-09-09T09:47:59;4.13;;;1.00;;
15287;SDS011;7745;48.708;9.026;2022-09-09T09:50:28;5.73;;;0.90;;
15287;SDS011;7745;48.708;9.026;2022-09-09T09:52:58;2.77;;;1.00;;
15287;SDS011;7745;48.708;9.026;2022-09-09T09:55:27;1.90;;;0.57;;
15287;SDS011;7745;48.708;9.026;2022-09-09T09:58:00;6.43;;;1.67;;
15287;SDS011;7745;48.708;9.026;2022-09-09T10:00:29;3.30;;;1.17;;
15287;SDS011;7745;48.708;9.026;2022-09-09T10:02:55;4.97;;;0.90;;
15287;SDS011;7745;48.708;9.026;2022-09-09T10:05:23;3.47;;;1.10;;
15287;SDS011;7745;48.708;9.026;2022-09-09T10:08:02;7.23;;;1.17;;
15287;SDS011;7745;48.708;9.026;2022-09-09T10:10:37;4.10;;;1.37;;
15287;SDS011;7745;48.708;9.026;2022-09-09T10:13:15;2.73;;;1.20;;
15287;SDS011;7745;48.708;9.026;2022-09-09T10:15:48;6.67;;;1.37;;
15287;SDS011;7745;48.708;9.026;2022-09-09T10:21:17;5.17;;;1.30;;
15287;SDS011;7745;48.708;9.026;2022-09-09T10:23:56;3.47;;;1.00;;
15287;SDS011;7745;48.708;9.026;2022-09-09T10:26:40;5.23;;;1.23;;
15287;SDS011;7745;48.708;9.026;2022-09-09T10:29:18;3.50;;;0.93;;
15287;SDS011;7745;48.708;9.026;2022-09-09T10:31:59;3.10;;;0.93;;
15287;SDS011;7745;48.708;9.026;2022-09-09T10:35:24;4.40;;;0.97;;
15287;SDS011;7745;48.708;9.026;2022-09-09T10:38:14;4.82;;;1.20;;
15287;SDS011;7745;48.708;9.026;2022-09-09T10:40:48;8.23;;;1.20;;
15287;SDS011;7745;48.708;9.026;2022-09-09T10:43:33;2.85;;;1.13;;
15287;SDS011;7745;48.708;9.026;2022-09-09T10:46:10;5.80;;;1.10;;
15287;SDS011;7745;48.708;9.026;2022-09-09T10:48:56;5.53;;;1.20;;
15287;SDS011;7745;48.708;9.026;2022-09-09T10:51:35;4.30;;;0.88;;
15287;SDS011;7745;48.708;9.026;2022-09-09T10:54:13;2.78;;;1.00;;
15287;SDS011;7745;48.708;9.026;2022-09-09T10:56:54;2.10;;;0.82;;
15287;SDS011;7745;48.708;9.026;2022-09-09T10:59:25;3.88;;;0.73;;
15287;SDS011;7745;48.708;9.026;2022-09-09T11:01:56;3.92;;;0.82;;
15287;SDS011;7745;48.708;9.026;2022-09-09T11:04:27;6.45;;;0.90;;
15287;SDS011;7745;48.708;9.026;2022-09-09T11:06:59;6.65;;;1.17;;
15287;SDS011;7745;48.708;9.026;2022-09-09T11:09:32;3.45;;;0.85;;
15287;SDS011;7745;48.708;9.026;2022-09-09T11:12:05;4.45;;;1.05;;
15287;SDS011;7745;48.708;9.026;2022-09-09T11:14:39;2.28;;;0.55;;
15287;SDS011;7745;48.708;9.026;2022-09-09T11:17:10;4.07;;;0.60;;
15287;SDS011;7745;48.708;9.026;2022-09-09T11:19:40;3.83;;;0.90;;
15287;SDS011;7745;48.708;9.026;2022-09-09T11:22:15;2.70;;;0.82;;
15287;SDS011;7745;48.708;9.026;2022-09-09T11:24:49;2.63;;;0.70;;
15287;SDS011;7745;48.708;9.026;2022-09-09T11:27:21;6.67;;;0.93;;
15287;SDS011;7745;48.708;9.026;2022-09-09T11:35:38;6.20;;;0.70;;
15287;SDS011;7745;48.708;9.026;2022-09-09T11:38:19;5.97;;;0.73;;
15287;SDS011;7745;48.708;9.026;2022-09-09T11:40:53;6.43;;;0.70;;
15287;SDS011;7745;48.708;9.026;2022-09-09T11:43:26;2.93;;;0.47;;
15287;SDS011;7745;48.708;9.026;2022-09-09T11:45:57;2.23;;;0.37;;
15287;SDS011;7745;48.708;9.026;2022-09-09T11:48:29;1.07;;;0.27;;
15287;SDS011;7745;48.708;9.026;2022-09-09T11:51:00;4.87;;;0.63;;
15287;SDS011;7745;48.708;9.026;2022-09-09T11:53:30;7.53;;;1.10;;
15287;SDS011;7745;48.708;9.026;2022-09-09T11:56:01;6.93;;;0.80;;
15287;SDS011;7745;48.708;9.026;2022-09-09T11:58:33;6.27;;;0.90;;
15287;SDS011;7745;48.708;9.026;2022-09-09T12:01:15;7.20;;;1.27;;
15287;SDS011;7745;48.708;9.026;2022-09-09T12:03:55;1.50;;;0.33;;
15287;SDS011;7745;48.708;9.026;2022-09-09T12:06:43;4.70;;;0.80;;
15287;SDS011;7745;48.708;9.026;2022-09-09T12:09:19;2.07;;;0.60;;
15287;SDS011;7745;48.708;9.026;2022-09-09T12:12:05;2.33;;;0.70;;
15287;SDS011;7745;48.708;9.026;2022-09-09T12:14:56;0.90;;;0.30;;
15287;SDS011;7745;48.708;9.026;2022-09-09T12:17:28;0.60;;;0.23;;
15287;SDS011;7745;48.708;9.026;2022-09-09T12:20:00;3.83;;;0.50;;
15287;SDS011;7745;48.708;9.026;2022-09-09T12:22:33;3.03;;;0.47;;
15287;SDS011;7745;48.708;9.026;2022-09-09T12:25:09;1.40;;;0.43;;
15287;SDS011;7745;48.708;9.026;2022-09-09T12:27:47;1.37;;;0.27;;
15287;SDS011;7745;48.708;9.026;2022-09-09T12:30:29;0.97;;;0.37;;
15287;SDS011;7745;48.708;9.026;2022-09-09T12:33:01;2.77;;;0.60;;
15287;SDS011;7745;48.708;9.026;2022-09-09T12:35:28;1.50;;;0.60;;
15287;SDS011;7745;48.708;9.026;2022-09-09T12:37:57;1.17;;;0.50;;
15287;SDS011;7745;48.708;9.026;2022-09-09T12:40:30;2.20;;;0.50;;
15287;SDS011;7745;48.708;9.026;2022-09-09T12:43:00;3.33;;;0.70;;
15287;SDS011;7745;48.708;9.026;2022-09-09T12:45:30;4.60;;;0.87;;
15287;SDS011;7745;48.708;9.026;2022-09-09T12:47:58;2.87;;;0.63;;
15287;SDS011;7745;48.708;9.026;2022-09-09T12:50:29;3.07;;;0.80;;
15287;SDS011;7745;48.708;9.026;2022-09-09T12:52:58;2.27;;;0.60;;
15287;SDS011;7745;48.708;9.026;2022-09-09T12:55:29;4.20;;;0.67;;
15287;SDS011;7745;48.708;9.026;2022-09-09T12:57:58;4.20;;;0.77;;
15287;SDS011;7745;48.708;9.026;2022-09-09T13:00:30;2.33;;;0.50;;
15287;SDS011;7745;48.708;9.026;2022-09-09T13:02:58;2.10;;;0.60;;
15287;SDS011;7745;48.708;9.026;2022-09-09T13:05:27;4.63;;;0.60;;
15287;SDS011;7745;48.708;9.026;2022-09-09T13:08:03;2.40;;;0.60;;
15287;SDS011;7745;48.708;9.026;2022-09-09T13:10:31;3.50;;;0.70;;
15287;SDS011;7745;48.708;9.026;2022-09-09T13:13:01;2.93;;;0.70;;
15287;SDS011;7745;48.708;9.026;2022-09-09T13:15:31;3.17;;;0.63;;
15287;SDS011;7745;48.708;9.026;2022-09-09T13:18:01;4.37;;;0.57;;
15287;SDS011;7745;48.708;9.026;2022-09-09T13:20:33;4.10;;;0.70;;
15287;SDS011;7745;48.708;9.026;2022-09-09T13:23:00;3.60;;;0.50;;
15287;SDS011;7745;48.708;9.026;2022-09-09T13:25:27;2.00;;;0.50;;
15287;SDS011;7745;48.708;9.026;2022-09-09T13:27:56;1.07;;;0.53;;
15287;SDS011;7745;48.708;9.026;2022-09-09T13:30:25;3.03;;;0.57;;
15287;SDS011;7745;48.708;9.026;2022-09-09T13:33:06;5.10;;;0.67;;
15287;SDS011;7745;48.708;9.026;2022-09-09T13:35:49;3.67;;;0.60;;
15287;SDS011;7745;48.708;9.026;2022-09-09T13:38:18;1.73;;;0.50;;
15287;SDS011;7745;48.708;9.026;2022-09-09T13:40:55;1.47;;;0.47;;
15287;SDS011;7745;48.708;9.026;2022-09-09T13:43:27;2.37;;;0.53;;
15287;SDS011;7745;48.708;9.026;2022-09-09T13:45:55;2.27;;;0.40;;
15287;SDS011;7745;48.708;9.026;2022-09-09T13:48:26;1.40;;;0.40;;
15287;SDS011;7745;48.708;9.026;2022-09-09T13:50:53;3.10;;;0.50;;
15287;SDS011;7745;48.708;9.026;2022-09-09T13:53:25;4.27;;;0.73;;
15287;SDS011;7745;48.708;9.026;2022-09-09T13:55:52;5.00;;;0.70;;
15287;SDS011;7745;48.708;9.026;2022-09-09T13:58:19;3.50;;;0.47;;
15287;SDS011;7745;48.708;9.026;2022-09-09T14:00:47;3.20;;;0.50;;
15287;SDS011;7745;48.708;9.026;2022-09-09T14:03:15;2.10;;;0.60;;
15287;SDS011;7745;48.708;9.026;2022-09-09T14:05:43;1.77;;;0.50;;
15287;SDS011;7745;48.708;9.026;2022-09-09T14:08:11;1.57;;;0.50;;
15287;SDS011;7745;48.708;9.026;2022-09-09T14:10:47;1.97;;;0.60;;
15287;SDS011;7745;48.708;9.026;2022-09-09T14:13:14;2.20;;;0.40;;
15287;SDS011;7745;48.708;9.026;2022-09-09T14:15:41;3.97;;;0.50;;
15287;SDS011;7745;48.708;9.026;2022-09-09T14:18:09;1.53;;;0.23;;
15287;SDS011;7745;48.708;9.026;2022-09-09T14:20:37;2.97;;;0.50;;
15287;SDS011;7745;48.708;9.026;2022-09-09T14:23:05;2.30;;;0.50;;
15287;SDS011;7745;48.708;9.026;2022-09-09T14:25:32;2.77;;;0.40;;
15287;SDS011;7745;48.708;9.026;2022-09-09T14:27:59;2.30;;;0.57;;
15287;SDS011;7745;48.708;9.026;2022-09-09T14:30:27;3.50;;;0.77;;
15287;SDS011;7745;48.708;9.026;2022-09-09T14:32:53;1.90;;;0.70;;
15287;SDS011;7745;48.708;9.026;2022-09-09T14:35:20;1.17;;;0.43;;
15287;SDS011;7745;48.708;9.026;2022-09-09T14:37:47;1.53;;;0.57;;
15287;SDS011;7745;48.708;9.026;2022-09-09T14:40:15;0.98;;;0.35;;
15287;SDS011;7745;48.708;9.026;2022-09-09T14:42:42;2.57;;;0.57;;
15287;SDS011;7745;48.708;9.026;2022-09-09T14:45:14;1.90;;;0.60;;
15287;SDS011;7745;48.708;9.026;2022-09-09T14:47:40;2.07;;;0.70;;
15287;SDS011;7745;48.708;9.026;2022-09-09T14:50:12;2.53;;;0.50;;
15287;SDS011;7745;48.708;9.026;2022-09-09T14:52:39;2.77;;;0.60;;
15287;SDS011;7745;48.708;9.026;2022-09-09T14:55:06;1.90;;;0.43;;
15287;SDS011;7745;48.708;9.026;2022-09-09T15:00:24;2.65;;;0.40;;
15287;SDS011;7745;48.708;9.026;2022-09-09T15:02:53;3.75;;;0.82;;
15287;SDS011;7745;48.708;9.026;2022-09-09T15:05:20;1.80;;;0.60;;
15287;SDS011;7745;48.708;9.026;2022-09-09T15:07:50;1.55;;;0.60;;
15287;SDS011;7745;48.708;9.026;2022-09-09T15:10:17;2.70;;;0.70;;
15287;SDS011;7745;48.708;9.026;2022-09-09T15:12:44;1.13;;;0.40;;
15287;SDS011;7745;48.708;9.026;2022-09-09T15:15:12;3.93;;;0.50;;
15287;SDS011;7745;48.708;9.026;2022-09-09T15:17:39;3.47;;;0.60;;
15287;SDS011;7745;48.708;9.026;2022-09-09T15:20:06;3.20;;;0.50;;
15287;SDS011;7745;48.708;9.026;2022-09-09T15:22:34;1.53;;;0.47;;
15287;SDS011;7745;48.708;9.026;2022-09-09T15:25:02;3.42;;;0.50;;
15287;SDS011;7745;48.708;9.026;2022-09-09T15:27:30;3.73;;;0.77;;
15287;SDS011;7745;48.708;9.026;2022-09-09T15:29:58;4.15;;;0.73;;
15287;SDS011;7745;48.708;9.026;2022-09-09T15:32:27;5.05;;;0.70;;
15287;SDS011;7745;48.708;9.026;2022-09-09T15:34:54;2.97;;;0.50;;
15287;SDS011;7745;48.708;9.026;2022-09-09T15:37:20;3.63;;;0.40;;